Kirkwood, IL (61447)

11:19 PM CST on February 11, 2016 (GMT -0600)
Kirkwood | | Change Station
CLOSE
Current Station
Personal Weather Station
Location: Kirkwood, IL
Elevation: 732 ft
Nearby Weather Stations

Elev 732 ft 40.85 °N, 90.75 °W | Updated 17 minutes ago

Overcast
Overcast
21.7 °F
Feels Like 22 °F
N
0.0
Wind Variable Wind from WSW
Gusts 0.0 mph

Today
High -- | Low -- °F
--% Chance of Precip.
Yesterday
High -- | Low -- °F
Precip. -- in
Pressure 30.25 in
Visibility 10.0 miles
Clouds Scattered Clouds 4000 ft
Mostly Cloudy 4800 ft
Overcast 6000 ft
Windchill 22 °F
Dew Point 15 °F
Humidity 77%
Rainfall 0.00 in
Snow Depth Not available.
7:02 AM 5:32 PM
Waxing Crescent, 17% visible
METAR KGBG 120455Z AUTO 22005KT 10SM SCT040 BKN048 OVC060 M05/M10 A3025 RMK AO2 T10521105
Pressure 30.25 in
Visibility 10.0 miles
Clouds Scattered Clouds 4000 ft
Mostly Cloudy 4800 ft
Overcast 6000 ft
Windchill 22 °F
Dew Point 15 °F
Humidity 77%
Rainfall 0.00 in
Snow Depth Not available.
7:02 AM 5:32 PM
Waxing Crescent, 17% visible
METAR KGBG 120455Z AUTO 22005KT 10SM SCT040 BKN048 OVC060 M05/M10 A3025 RMK AO2 T10521105

10-Day Weather Forecast

Almanac

Astronomy

Feb. 11, 2016 Rise Set
Actual Time
Civil Twilight
Nautical Twilight
Astronomical Twilight
Moon
Length of Visible Light
Length of Day
Tomorrow will be .
, % of the Moon is Illuminated

Today's Extremes

State Highs State Lows

Community

WunderPhotos

Upload Photos

1,892,265 photos uploaded!

WunderBlog® & News

Nearby

Air Quality

  Air Quality AQ Index Pollutant
Not available.

Snow Depth

Station Depth Elevation

Earthquake Activity

City Distance Mag. Time & Date
Minimum magnitude displayed is 2.5.

Coastal Water Temperatures

Place Temperature

Stations

Nearby Weather Stations

Station Location Temp. Windchill Dew Point Humidity Wind Precip. Elev Updated Type
                   

Watches & Warnings

There are currently no watches in effect.